sensor_id;sensor_type;location;lat;lon;timestamp;pressure;altitude;pressure_sealevel;temperature;humidity
1207;BME280;593;53.184;8.216;2023-04-01T00:01:36;98929.22;;;13.40;100.00
1207;BME280;593;53.184;8.216;2023-04-01T00:04:01;98939.22;;;13.36;100.00
1207;BME280;593;53.184;8.216;2023-04-01T00:06:27;98924.53;;;13.28;100.00
1207;BME280;593;53.184;8.216;2023-04-01T00:08:52;98932.97;;;13.35;100.00
1207;BME280;593;53.184;8.216;2023-04-01T00:11:18;98940.81;;;13.37;100.00
1207;BME280;593;53.184;8.216;2023-04-01T00:13:44;98938.91;;;13.37;100.00
1207;BME280;593;53.184;8.216;2023-04-01T00:16:09;98940.03;;;13.36;100.00
1207;BME280;593;53.184;8.216;2023-04-01T00:18:35;98934.69;;;13.40;100.00
1207;BME280;593;53.184;8.216;2023-04-01T00:21:00;98935.94;;;13.42;100.00
1207;BME280;593;53.184;8.216;2023-04-01T00:23:26;98939.44;;;13.43;100.00
1207;BME280;593;53.184;8.216;2023-04-01T00:25:51;98933.44;;;13.37;100.00
1207;BME280;593;53.184;8.216;2023-04-01T00:28:17;98935.44;;;13.40;100.00
1207;BME280;593;53.184;8.216;2023-04-01T00:30:43;98938.19;;;13.40;100.00
1207;BME280;593;53.184;8.216;2023-04-01T00:33:09;98941.94;;;13.36;100.00
1207;BME280;593;53.184;8.216;2023-04-01T00:35:34;98940.38;;;13.35;100.00
1207;BME280;593;53.184;8.216;2023-04-01T00:38:00;98941.16;;;13.35;100.00
1207;BME280;593;53.184;8.216;2023-04-01T00:40:30;98940.25;;;13.31;100.00
1207;BME280;593;53.184;8.216;2023-04-01T00:42:56;98932.06;;;13.31;100.00
1207;BME280;593;53.184;8.216;2023-04-01T00:45:35;98937.16;;;13.33;100.00
1207;BME280;593;53.184;8.216;2023-04-01T00:48:05;98937.06;;;13.29;100.00
1207;BME280;593;53.184;8.216;2023-04-01T00:50:33;98929.69;;;13.30;100.00
1207;BME280;593;53.184;8.216;2023-04-01T00:53:00;98934.34;;;13.29;100.00
1207;BME280;593;53.184;8.216;2023-04-01T00:55:27;98938.66;;;13.30;100.00
1207;BME280;593;53.184;8.216;2023-04-01T00:57:56;98931.63;;;13.29;100.00
1207;BME280;593;53.184;8.216;2023-04-01T01:00:22;98935.91;;;13.30;100.00
1207;BME280;593;53.184;8.216;2023-04-01T01:02:49;98947.44;;;13.24;100.00
1207;BME280;593;53.184;8.216;2023-04-01T01:05:16;98936.50;;;13.24;100.00
1207;BME280;593;53.184;8.216;2023-04-01T01:07:58;98938.44;;;13.23;100.00
1207;BME280;593;53.184;8.216;2023-04-01T01:10:31;98940.25;;;13.31;100.00
1207;BME280;593;53.184;8.216;2023-04-01T01:13:27;98945.81;;;13.23;100.00
1207;BME280;593;53.184;8.216;2023-04-01T01:16:20;98939.47;;;13.19;100.00
1207;BME280;593;53.184;8.216;2023-04-01T01:26:57;98936.63;;;13.27;100.00
1207;BME280;593;53.184;8.216;2023-04-01T01:32:38;98940.84;;;13.25;100.00
1207;BME280;593;53.184;8.216;2023-04-01T01:37:59;98934.44;;;13.21;100.00
1207;BME280;593;53.184;8.216;2023-04-01T01:40:27;98936.50;;;13.24;100.00
1207;BME280;593;53.184;8.216;2023-04-01T01:42:57;98938.44;;;13.23;100.00
1207;BME280;593;53.184;8.216;2023-04-01T01:45:25;98943.22;;;13.26;100.00
1207;BME280;593;53.184;8.216;2023-04-01T01:47:51;98940.84;;;13.25;100.00
1207;BME280;593;53.184;8.216;2023-04-01T01:50:18;98934.34;;;13.17;100.00
1207;BME280;593;53.184;8.216;2023-04-01T01:52:44;98941.38;;;13.18;100.00
1207;BME280;593;53.184;8.216;2023-04-01T01:55:27;98948.44;;;13.19;100.00
1207;BME280;593;53.184;8.216;2023-04-01T01:57:54;98945.38;;;13.21;100.00
1207;BME280;593;53.184;8.216;2023-04-01T02:00:20;98947.19;;;13.17;100.00
1207;BME280;593;53.184;8.216;2023-04-01T02:02:47;98941.97;;;13.12;100.00
1207;BME280;593;53.184;8.216;2023-04-01T02:05:21;98944.78;;;13.15;100.00
1207;BME280;593;53.184;8.216;2023-04-01T02:07:57;98948.78;;;13.18;100.00
1207;BME280;593;53.184;8.216;2023-04-01T02:10:26;98952.97;;;13.15;100.00
1207;BME280;593;53.184;8.216;2023-04-01T02:12:58;98950.59;;;13.14;100.00
1207;BME280;593;53.184;8.216;2023-04-01T02:15:27;98952.88;;;13.12;100.00
1207;BME280;593;53.184;8.216;2023-04-01T02:17:55;98957.41;;;13.08;100.00
1207;BME280;593;53.184;8.216;2023-04-01T02:20:23;98964.03;;;13.07;100.00
1207;BME280;593;53.184;8.216;2023-04-01T02:22:53;98960.63;;;13.10;100.00
1207;BME280;593;53.184;8.216;2023-04-01T02:25:26;98956.75;;;13.11;100.00
1207;BME280;593;53.184;8.216;2023-04-01T02:27:53;98956.75;;;13.11;100.00
1207;BME280;593;53.184;8.216;2023-04-01T02:30:20;98962.19;;;13.11;100.00
1207;BME280;593;53.184;8.216;2023-04-01T02:32:46;98962.31;;;13.14;100.00
1207;BME280;593;53.184;8.216;2023-04-01T02:35:13;98957.91;;;13.10;100.00
1207;BME280;593;53.184;8.216;2023-04-01T02:37:44;98965.50;;;13.16;100.00
1207;BME280;593;53.184;8.216;2023-04-01T02:40:12;98960.84;;;13.17;100.00
1207;BME280;593;53.184;8.216;2023-04-01T02:42:37;98969.38;;;13.15;100.00
1207;BME280;593;53.184;8.216;2023-04-01T02:45:04;98961.66;;;13.17;100.00
1207;BME280;593;53.184;8.216;2023-04-01T02:47:30;98961.19;;;13.15;100.00
1207;BME280;593;53.184;8.216;2023-04-01T02:49:55;98971.53;;;13.22;100.00
1207;BME280;593;53.184;8.216;2023-04-01T02:52:27;98965.63;;;13.20;100.00
1207;BME280;593;53.184;8.216;2023-04-01T02:54:53;98968.81;;;13.22;100.00
1207;BME280;593;53.184;8.216;2023-04-01T02:57:18;98965.63;;;13.20;100.00
1207;BME280;593;53.184;8.216;2023-04-01T02:59:45;98973.03;;;13.19;100.00
1207;BME280;593;53.184;8.216;2023-04-01T03:02:10;98972.66;;;13.21;100.00
1207;BME280;593;53.184;8.216;2023-04-01T03:04:36;98980.41;;;13.19;100.00
1207;BME280;593;53.184;8.216;2023-04-01T03:07:01;98984.03;;;13.23;100.00
1207;BME280;593;53.184;8.216;2023-04-01T03:09:27;98986.31;;;13.21;100.00
1207;BME280;593;53.184;8.216;2023-04-01T03:11:53;98983.72;;;13.24;100.00
1207;BME280;593;53.184;8.216;2023-04-01T03:14:19;98981.00;;;13.24;100.00
1207;BME280;593;53.184;8.216;2023-04-01T03:16:44;98984.03;;;13.23;100.00
1207;BME280;593;53.184;8.216;2023-04-01T03:19:09;98986.31;;;13.21;100.00
1207;BME280;593;53.184;8.216;2023-04-01T03:21:35;98984.41;;;13.21;100.00
1207;BME280;593;53.184;8.216;2023-04-01T03:24:00;98985.88;;;13.19;100.00
1207;BME280;593;53.184;8.216;2023-04-01T03:26:26;98987.94;;;13.22;100.00
1207;BME280;593;53.184;8.216;2023-04-01T03:28:54;98979.97;;;13.17;100.00
1207;BME280;593;53.184;8.216;2023-04-01T03:31:20;98979.50;;;13.15;100.00
1207;BME280;593;53.184;8.216;2023-04-01T03:33:45;98996.00;;;13.18;100.00
1207;BME280;593;53.184;8.216;2023-04-01T03:36:10;98983.38;;;13.14;100.00
1207;BME280;593;53.184;8.216;2023-04-01T03:38:38;98994.50;;;13.21;100.00
1207;BME280;593;53.184;8.216;2023-04-01T03:41:04;98995.91;;;13.15;100.00
1207;BME280;593;53.184;8.216;2023-04-01T03:43:30;98992.81;;;13.16;100.00
1207;BME280;593;53.184;8.216;2023-04-01T03:45:55;98994.75;;;13.28;100.00
1207;BME280;593;53.184;8.216;2023-04-01T03:48:23;98992.22;;;13.23;100.00
1207;BME280;593;53.184;8.216;2023-04-01T03:50:48;99001.59;;;13.22;100.00
1207;BME280;593;53.184;8.216;2023-04-01T03:53:14;99003.41;;;13.30;100.00
1207;BME280;593;53.184;8.216;2023-04-01T03:55:40;99001.81;;;13.29;100.00
1207;BME280;593;53.184;8.216;2023-04-01T03:58:06;98996.91;;;13.22;100.00
1207;BME280;593;53.184;8.216;2023-04-01T04:00:32;99001.59;;;13.22;100.00
1207;BME280;593;53.184;8.216;2023-04-01T04:02:58;99002.94;;;13.16;100.00
1207;BME280;593;53.184;8.216;2023-04-01T04:05:24;99010.66;;;13.14;100.00
1207;BME280;593;53.184;8.216;2023-04-01T04:07:50;99003.94;;;13.11;100.00
1207;BME280;593;53.184;8.216;2023-04-01T04:10:16;99010.88;;;13.09;100.00
1207;BME280;593;53.184;8.216;2023-04-01T04:12:42;99008.97;;;13.09;100.00
1207;BME280;593;53.184;8.216;2023-04-01T04:15:07;99014.75;;;13.08;100.00
1207;BME280;593;53.184;8.216;2023-04-01T04:17:33;99015.53;;;13.08;100.00
1207;BME280;593;53.184;8.216;2023-04-01T04:19:58;99019.06;;;13.09;100.00
1207;BME280;593;53.184;8.216;2023-04-01T04:22:24;99014.59;;;13.04;100.00
1207;BME280;593;53.184;8.216;2023-04-01T04:24:49;99026.25;;;13.13;100.00
1207;BME280;593;53.184;8.216;2023-04-01T04:27:15;99028.06;;;13.09;100.00
1207;BME280;593;53.184;8.216;2023-04-01T04:29:40;99027.91;;;13.06;100.00
1207;BME280;593;53.184;8.216;2023-04-01T04:32:05;99030.00;;;13.09;100.00
1207;BME280;593;53.184;8.216;2023-04-01T04:34:31;99026.59;;;13.12;100.00
1207;BME280;593;53.184;8.216;2023-04-01T04:36:56;99025.56;;;13.16;100.00
1207;BME280;593;53.184;8.216;2023-04-01T04:39:22;99021.66;;;13.05;100.00
1207;BME280;593;53.184;8.216;2023-04-01T04:41:47;99033.06;;;13.07;100.00
1207;BME280;593;53.184;8.216;2023-04-01T04:44:12;99039.19;;;13.04;100.00
1207;BME280;593;53.184;8.216;2023-04-01T04:46:38;99040.91;;;13.09;100.00
1207;BME280;593;53.184;8.216;2023-04-01T04:49:04;99042.84;;;13.08;100.00
1207;BME280;593;53.184;8.216;2023-04-01T04:51:30;99053.44;;;13.10;100.00
1207;BME280;593;53.184;8.216;2023-04-01T04:53:59;99047.97;;;13.10;100.00
1207;BME280;593;53.184;8.216;2023-04-01T04:56:24;99060.47;;;13.11;100.00
1207;BME280;593;53.184;8.216;2023-04-01T04:58:51;99060.47;;;13.11;100.00
1207;BME280;593;53.184;8.216;2023-04-01T05:01:16;99057.66;;;13.07;100.00
1207;BME280;593;53.184;8.216;2023-04-01T05:03:42;99053.94;;;13.03;100.00
1207;BME280;593;53.184;8.216;2023-04-01T05:06:09;99055.31;;;12.97;100.00
1207;BME280;593;53.184;8.216;2023-04-01T05:08:35;99060.88;;;13.01;100.00
1207;BME280;593;53.184;8.216;2023-04-01T05:11:02;99060.56;;;13.02;100.00
1207;BME280;593;53.184;8.216;2023-04-01T05:13:28;99065.66;;;13.04;100.00
1207;BME280;593;53.184;8.216;2023-04-01T05:15:54;99075.16;;;13.06;100.00
1207;BME280;593;53.184;8.216;2023-04-01T05:18:19;99072.59;;;13.01;100.00
1207;BME280;593;53.184;8.216;2023-04-01T05:20:49;99076.22;;;13.05;100.00
1207;BME280;593;53.184;8.216;2023-04-01T05:23:15;99075.94;;;13.07;100.00
1207;BME280;593;53.184;8.216;2023-04-01T05:25:40;99076.75;;;13.07;100.00
1207;BME280;593;53.184;8.216;2023-04-01T05:28:06;99076.06;;;13.10;100.00
1207;BME280;593;53.184;8.216;2023-04-01T05:30:31;99082.97;;;13.08;100.00
1207;BME280;593;53.184;8.216;2023-04-01T05:32:57;99085.91;;;13.03;100.00
1207;BME280;593;53.184;8.216;2023-04-01T05:35:23;99091.03;;;13.04;100.00
1207;BME280;593;53.184;8.216;2023-04-01T05:37:48;99083.16;;;13.03;100.00
1207;BME280;593;53.184;8.216;2023-04-01T05:40:14;99090.59;;;13.02;100.00
1207;BME280;593;53.184;8.216;2023-04-01T05:42:39;99097.50;;;13.00;100.00
1207;BME280;593;53.184;8.216;2023-04-01T05:45:05;99072.22;;;12.91;100.00
1207;BME280;593;53.184;8.216;2023-04-01T05:47:31;99097.03;;;12.98;100.00
1207;BME280;593;53.184;8.216;2023-04-01T05:49:56;99097.22;;;12.93;100.00
1207;BME280;593;53.184;8.216;2023-04-01T05:52:21;99093.84;;;12.96;100.00
1207;BME280;593;53.184;8.216;2023-04-01T05:54:47;99102.69;;;12.93;100.00
1207;BME280;593;53.184;8.216;2023-04-01T05:57:12;99105.78;;;12.91;100.00
1207;BME280;593;53.184;8.216;2023-04-01T05:59:37;99109.16;;;12.88;100.00
1207;BME280;593;53.184;8.216;2023-04-01T06:02:03;99114.75;;;12.92;100.00
1207;BME280;593;53.184;8.216;2023-04-01T06:04:32;99117.50;;;12.92;100.00
1207;BME280;593;53.184;8.216;2023-04-01T06:06:59;99116.56;;;12.88;100.00
1207;BME280;593;53.184;8.216;2023-04-01T06:09:29;99113.16;;;12.91;100.00
1207;BME280;593;53.184;8.216;2023-04-01T06:28:39;99133.63;;;12.84;100.00
1207;BME280;593;53.184;8.216;2023-04-01T06:40:18;99147.31;;;12.76;100.00
1207;BME280;593;53.184;8.216;2023-04-01T06:51:36;99161.56;;;12.81;100.00
1207;BME280;593;53.184;8.216;2023-04-01T06:54:15;99164.22;;;12.90;100.00
1207;BME280;593;53.184;8.216;2023-04-01T06:56:44;99172.88;;;12.92;100.00
1207;BME280;593;53.184;8.216;2023-04-01T06:59:19;99168.47;;;13.00;100.00
1207;BME280;593;53.184;8.216;2023-04-01T07:01:49;99172.66;;;12.97;100.00
1207;BME280;593;53.184;8.216;2023-04-01T07:04:33;99179.59;;;12.95;100.00
1207;BME280;593;53.184;8.216;2023-04-01T07:07:14;99173.19;;;12.91;100.00
1207;BME280;593;53.184;8.216;2023-04-01T07:09:49;99181.91;;;13.05;100.00
1207;BME280;593;53.184;8.216;2023-04-01T07:12:28;99180.97;;;13.01;100.00
1207;BME280;593;53.184;8.216;2023-04-01T07:14:58;99186.31;;;12.97;100.00
1207;BME280;593;53.184;8.216;2023-04-01T07:17:31;99188.03;;;13.02;100.00
1207;BME280;593;53.184;8.216;2023-04-01T07:20:05;99193.03;;;13.00;100.00
1207;BME280;593;53.184;8.216;2023-04-01T07:22:40;99208.25;;;13.01;100.00
1207;BME280;593;53.184;8.216;2023-04-01T07:25:15;99210.53;;;12.99;100.00
1207;BME280;593;53.184;8.216;2023-04-01T07:27:42;99211.13;;;13.04;100.00
1207;BME280;593;53.184;8.216;2023-04-01T07:30:17;99210.50;;;13.07;100.00
1207;BME280;593;53.184;8.216;2023-04-01T07:32:51;99216.25;;;13.06;100.00
1207;BME280;593;53.184;8.216;2023-04-01T07:35:37;99217.22;;;13.10;100.00
1207;BME280;593;53.184;8.216;2023-04-01T07:44:13;99220.66;;;13.19;100.00
1207;BME280;593;53.184;8.216;2023-04-01T07:46:59;99232.19;;;13.24;100.00
1207;BME280;593;53.184;8.216;2023-04-01T07:52:22;99238.06;;;13.14;100.00
1207;BME280;593;53.184;8.216;2023-04-01T07:54:55;99233.44;;;13.27;100.00
1207;BME280;593;53.184;8.216;2023-04-01T07:57:29;99238.31;;;13.21;100.00
1207;BME280;593;53.184;8.216;2023-04-01T08:08:56;99259.25;;;13.17;100.00
1207;BME280;593;53.184;8.216;2023-04-01T08:20:08;99259.56;;;13.16;100.00
1207;BME280;593;53.184;8.216;2023-04-01T08:22:42;99270.53;;;13.28;100.00
1207;BME280;593;53.184;8.216;2023-04-01T08:25:16;99280.19;;;13.25;100.00
1207;BME280;593;53.184;8.216;2023-04-01T08:31:10;99282.72;;;13.30;100.00
1207;BME280;593;53.184;8.216;2023-04-01T08:33:38;99295.50;;;13.38;100.00
1207;BME280;593;53.184;8.216;2023-04-01T08:36:22;99302.59;;;13.39;100.00
1207;BME280;593;53.184;8.216;2023-04-01T08:39:07;99296.78;;;13.41;100.00
1207;BME280;593;53.184;8.216;2023-04-01T08:42:14;99301.16;;;13.54;100.00
1207;BME280;593;53.184;8.216;2023-04-01T08:50:47;99310.47;;;13.53;100.00
1207;BME280;593;53.184;8.216;2023-04-01T08:56:36;99313.34;;;13.57;100.00
1207;BME280;593;53.184;8.216;2023-04-01T08:59:27;99312.56;;;13.56;100.00
1207;BME280;593;53.184;8.216;2023-04-01T09:08:24;99328.72;;;13.61;100.00
1207;BME280;593;53.184;8.216;2023-04-01T09:10:57;99328.94;;;13.56;100.00
1207;BME280;593;53.184;8.216;2023-04-01T09:18:24;99341.28;;;13.62;100.00
1207;BME280;593;53.184;8.216;2023-04-01T09:24:32;99346.31;;;13.72;100.00
1207;BME280;593;53.184;8.216;2023-04-01T09:35:37;99369.09;;;13.76;100.00
1207;BME280;593;53.184;8.216;2023-04-01T09:38:20;99376.69;;;13.71;100.00
1207;BME280;593;53.184;8.216;2023-04-01T09:40:58;99374.53;;;13.64;100.00
1207;BME280;593;53.184;8.216;2023-04-01T09:43:29;99375.47;;;13.47;100.00
1207;BME280;593;53.184;8.216;2023-04-01T09:46:10;99390.41;;;13.50;100.00
1207;BME280;593;53.184;8.216;2023-04-01T10:02:33;99420.44;;;13.50;100.00
1207;BME280;593;53.184;8.216;2023-04-01T10:05:56;99408.91;;;13.44;100.00
1207;BME280;593;53.184;8.216;2023-04-01T10:08:22;99408.09;;;13.44;100.00
1207;BME280;593;53.184;8.216;2023-04-01T10:19:31;99421.88;;;13.27;100.00
1207;BME280;593;53.184;8.216;2023-04-01T10:47:05;99481.22;;;13.01;100.00
1207;BME280;593;53.184;8.216;2023-04-01T11:25:01;99526.56;;;12.84;100.00
1207;BME280;593;53.184;8.216;2023-04-01T11:27:45;99545.38;;;12.77;100.00
1207;BME280;593;53.184;8.216;2023-04-01T11:31:00;99536.72;;;12.67;100.00
1207;BME280;593;53.184;8.216;2023-04-01T11:33:38;99568.16;;;12.81;100.00
1207;BME280;593;53.184;8.216;2023-04-01T11:41:49;99575.69;;;12.84;100.00
1207;BME280;593;53.184;8.216;2023-04-01T11:44:24;99585.31;;;12.82;100.00
1207;BME280;593;53.184;8.216;2023-04-01T11:49:56;99591.13;;;12.72;100.00
1207;BME280;593;53.184;8.216;2023-04-01T11:58:08;99603.81;;;12.59;100.00
1207;BME280;593;53.184;8.216;2023-04-01T12:04:11;99612.94;;;12.63;100.00
1207;BME280;593;53.184;8.216;2023-04-01T12:07:24;99620.31;;;12.63;100.00
1207;BME280;593;53.184;8.216;2023-04-01T12:12:40;99617.94;;;12.70;100.00
1207;BME280;593;53.184;8.216;2023-04-01T12:15:23;99634.75;;;12.63;100.00
1207;BME280;593;53.184;8.216;2023-04-01T12:18:13;99645.66;;;12.63;100.00
1207;BME280;593;53.184;8.216;2023-04-01T12:20:50;99644.53;;;12.56;100.00
1207;BME280;593;53.184;8.216;2023-04-01T12:23:51;99653.84;;;12.63;100.00
1207;BME280;593;53.184;8.216;2023-04-01T12:36:04;99673.13;;;12.50;100.00
1207;BME280;593;53.184;8.216;2023-04-01T12:41:18;99677.22;;;12.30;100.00
1207;BME280;593;53.184;8.216;2023-04-01T12:44:11;99678.69;;;12.36;100.00
1207;BME280;593;53.184;8.216;2023-04-01T12:49:52;99688.00;;;12.44;100.00
1207;BME280;593;53.184;8.216;2023-04-01T13:09:22;99729.31;;;12.20;100.00
1207;BME280;593;53.184;8.216;2023-04-01T13:14:57;99742.97;;;12.20;100.00
1207;BME280;593;53.184;8.216;2023-04-01T13:17:33;99732.88;;;12.20;100.00
1207;BME280;593;53.184;8.216;2023-04-01T13:20:11;99742.19;;;12.19;100.00
1207;BME280;593;53.184;8.216;2023-04-01T13:22:58;99747.25;;;12.12;100.00
1207;BME280;593;53.184;8.216;2023-04-01T13:28:20;99749.34;;;12.07;100.00
1207;BME280;593;53.184;8.216;2023-04-01T13:30:54;99767.78;;;12.10;100.00
1207;BME280;593;53.184;8.216;2023-04-01T13:33:37;99761.88;;;12.16;100.00
1207;BME280;593;53.184;8.216;2023-04-01T13:41:19;99784.53;;;12.26;100.00
1207;BME280;593;53.184;8.216;2023-04-01T13:44:09;99754.47;;;12.08;100.00
1207;BME280;593;53.184;8.216;2023-04-01T13:52:37;99796.19;;;12.17;100.00
1207;BME280;593;53.184;8.216;2023-04-01T13:55:23;99802.78;;;12.16;100.00
1207;BME280;593;53.184;8.216;2023-04-01T14:00:53;99814.63;;;12.12;100.00
1207;BME280;593;53.184;8.216;2023-04-01T14:03:37;99828.75;;;12.14;100.00
1207;BME280;593;53.184;8.216;2023-04-01T14:06:17;99831.47;;;12.14;100.00
1207;BME280;593;53.184;8.216;2023-04-01T14:14:24;99835.75;;;12.06;100.00
1207;BME280;593;53.184;8.216;2023-04-01T14:17:10;99838.41;;;11.98;100.00
1207;BME280;593;53.184;8.216;2023-04-01T14:37:29;99872.34;;;12.14;100.00
1207;BME280;593;53.184;8.216;2023-04-01T14:43:14;99886.75;;;12.06;100.00
1207;BME280;593;53.184;8.216;2023-04-01T14:48:36;99899.97;;;12.21;100.00
1207;BME280;593;53.184;8.216;2023-04-01T14:51:10;99894.19;;;12.22;100.00
1207;BME280;593;53.184;8.216;2023-04-01T14:53:49;99908.78;;;12.18;100.00
1207;BME280;593;53.184;8.216;2023-04-01T14:56:44;99914.81;;;12.06;100.00
1207;BME280;593;53.184;8.216;2023-04-01T14:59:27;99925.13;;;11.96;100.00
1207;BME280;593;53.184;8.216;2023-04-01T15:02:18;99921.31;;;11.97;100.00
1207;BME280;593;53.184;8.216;2023-04-01T15:08:33;99935.56;;;11.94;100.00
1207;BME280;593;53.184;8.216;2023-04-01T15:17:29;99946.00;;;12.00;100.00
1207;BME280;593;53.184;8.216;2023-04-01T15:31:19;99986.56;;;11.80;100.00
1207;BME280;593;53.184;8.216;2023-04-01T15:42:59;100023.09;;;11.65;100.00
1207;BME280;593;53.184;8.216;2023-04-01T15:48:33;100018.88;;;11.59;100.00
1207;BME280;593;53.184;8.216;2023-04-01T15:51:24;100025.22;;;11.54;100.00
1207;BME280;593;53.184;8.216;2023-04-01T15:59:53;100052.84;;;11.48;100.00
1207;BME280;593;53.184;8.216;2023-04-01T16:13:24;100074.13;;;11.32;100.00
1207;BME280;593;53.184;8.216;2023-04-01T16:18:58;100089.25;;;11.25;100.00
1207;BME280;593;53.184;8.216;2023-04-01T16:21:34;100086.84;;;11.23;100.00
1207;BME280;593;53.184;8.216;2023-04-01T16:24:22;100098.94;;;11.17;100.00
1207;BME280;593;53.184;8.216;2023-04-01T16:29:41;100101.13;;;11.15;100.00
1207;BME280;593;53.184;8.216;2023-04-01T16:32:43;100103.66;;;11.12;100.00
1207;BME280;593;53.184;8.216;2023-04-01T16:37:41;100116.47;;;11.11;100.00
1207;BME280;593;53.184;8.216;2023-04-01T16:43:06;100132.56;;;11.08;100.00
1207;BME280;593;53.184;8.216;2023-04-01T16:45:43;100138.00;;;11.08;100.00
1207;BME280;593;53.184;8.216;2023-04-01T16:48:14;100146.47;;;11.06;100.00
1207;BME280;593;53.184;8.216;2023-04-01T16:51:02;100157.06;;;11.08;100.00
1207;BME280;593;53.184;8.216;2023-04-01T16:53:45;100160.41;;;11.05;100.00
1207;BME280;593;53.184;8.216;2023-04-01T16:56:22;100159.53;;;10.90;100.00
1207;BME280;593;53.184;8.216;2023-04-01T17:01:39;100185.06;;;10.76;99.95
1207;BME280;593;53.184;8.216;2023-04-01T17:04:17;100189.19;;;10.73;100.00
1207;BME280;593;53.184;8.216;2023-04-01T17:06:56;100190.81;;;10.74;100.00
1207;BME280;593;53.184;8.216;2023-04-01T17:17:33;100218.88;;;10.70;99.82
1207;BME280;593;53.184;8.216;2023-04-01T17:20:31;100215.63;;;10.68;100.00
1207;BME280;593;53.184;8.216;2023-04-01T17:23:14;100225.50;;;10.64;100.00
1207;BME280;593;53.184;8.216;2023-04-01T17:31:45;100252.97;;;10.44;99.23
1207;BME280;593;53.184;8.216;2023-04-01T17:37:00;100252.31;;;10.52;99.27
1207;BME280;593;53.184;8.216;2023-04-01T17:56:11;100301.09;;;10.43;99.60
1207;BME280;593;53.184;8.216;2023-04-01T18:07:46;100332.09;;;10.18;98.97
1207;BME280;593;53.184;8.216;2023-04-01T18:10:34;100339.72;;;10.16;98.67
1207;BME280;593;53.184;8.216;2023-04-01T18:13:39;100345.66;;;10.18;98.95
1207;BME280;593;53.184;8.216;2023-04-01T18:16:12;100360.34;;;10.17;99.19
1207;BME280;593;53.184;8.216;2023-04-01T18:32:28;100390.03;;;10.14;98.99
1207;BME280;593;53.184;8.216;2023-04-01T18:38:10;100403.81;;;10.17;98.79
1207;BME280;593;53.184;8.216;2023-04-01T18:40:43;100416.84;;;10.20;98.81
1207;BME280;593;53.184;8.216;2023-04-01T18:46:00;100428.88;;;10.14;98.50
1207;BME280;593;53.184;8.216;2023-04-01T18:48:39;100429.16;;;10.08;98.38
1207;BME280;593;53.184;8.216;2023-04-01T18:51:22;100440.06;;;10.03;97.91
1207;BME280;593;53.184;8.216;2023-04-01T18:53:57;100449.06;;;9.98;98.54
1207;BME280;593;53.184;8.216;2023-04-01T18:59:01;100464.56;;;9.98;97.44
1207;BME280;593;53.184;8.216;2023-04-01T19:01:41;100461.31;;;9.96;97.16
1207;BME280;593;53.184;8.216;2023-04-01T19:06:49;100474.38;;;9.94;96.92
1207;BME280;593;53.184;8.216;2023-04-01T19:09:23;100492.59;;;9.93;96.69
1207;BME280;593;53.184;8.216;2023-04-01T19:12:20;100488.81;;;9.89;96.89
1207;BME280;593;53.184;8.216;2023-04-01T19:15:27;100496.72;;;9.86;96.06
1207;BME280;593;53.184;8.216;2023-04-01T19:21:15;100509.22;;;9.87;95.98
1207;BME280;593;53.184;8.216;2023-04-01T19:26:26;100525.28;;;9.78;95.93
1207;BME280;593;53.184;8.216;2023-04-01T19:29:06;100530.72;;;9.73;96.16
1207;BME280;593;53.184;8.216;2023-04-01T19:34:25;100536.47;;;9.66;96.10
1207;BME280;593;53.184;8.216;2023-04-01T19:42:34;100544.13;;;9.54;95.61
1207;BME280;593;53.184;8.216;2023-04-01T19:50:36;100565.59;;;9.51;95.00
1207;BME280;593;53.184;8.216;2023-04-01T19:53:31;100577.03;;;9.43;94.77
1207;BME280;593;53.184;8.216;2023-04-01T19:56:14;100568.09;;;9.37;94.48
1207;BME280;593;53.184;8.216;2023-04-01T19:59:12;100586.28;;;9.37;94.29
1207;BME280;593;53.184;8.216;2023-04-01T20:04:48;100595.56;;;9.16;93.82
1207;BME280;593;53.184;8.216;2023-04-01T20:09:50;100629.47;;;9.28;92.96
1207;BME280;593;53.184;8.216;2023-04-01T20:17:45;100631.66;;;9.11;93.37
1207;BME280;593;53.184;8.216;2023-04-01T20:25:27;100643.59;;;9.05;92.68
1207;BME280;593;53.184;8.216;2023-04-01T20:28:05;100647.94;;;9.06;92.45
1207;BME280;593;53.184;8.216;2023-04-01T20:36:10;100660.69;;;9.06;92.09
1207;BME280;593;53.184;8.216;2023-04-01T20:44:13;100677.78;;;9.06;92.45
1207;BME280;593;53.184;8.216;2023-04-01T20:49:54;100692.41;;;9.10;91.50
1207;BME280;593;53.184;8.216;2023-04-01T20:52:52;100695.41;;;9.14;92.17
1207;BME280;593;53.184;8.216;2023-04-01T20:57:56;100700.03;;;9.13;91.56
1207;BME280;593;53.184;8.216;2023-04-01T21:03:47;100714.66;;;9.12;91.88
1207;BME280;593;53.184;8.216;2023-04-01T21:12:19;100739.38;;;9.06;91.96
1207;BME280;593;53.184;8.216;2023-04-01T21:29:05;100762.13;;;8.99;91.46
1207;BME280;593;53.184;8.216;2023-04-01T21:35:11;100770.25;;;8.94;92.19
1207;BME280;593;53.184;8.216;2023-04-01T21:38:37;100779.22;;;8.90;91.95
1207;BME280;593;53.184;8.216;2023-04-01T21:43:21;100794.66;;;8.89;91.01
1207;BME280;593;53.184;8.216;2023-04-01T21:48:42;100802.53;;;8.86;89.73
1207;BME280;593;53.184;8.216;2023-04-01T21:51:29;100818.28;;;8.84;89.52
1207;BME280;593;53.184;8.216;2023-04-01T21:54:27;100822.84;;;8.78;89.33
1207;BME280;593;53.184;8.216;2023-04-01T22:00:12;100831.50;;;8.75;88.22
1207;BME280;593;53.184;8.216;2023-04-01T22:11:08;100856.69;;;8.66;86.37
1207;BME280;593;53.184;8.216;2023-04-01T22:13:48;100859.66;;;8.59;86.10
1207;BME280;593;53.184;8.216;2023-04-01T22:16:36;100858.81;;;8.54;85.71
1207;BME280;593;53.184;8.216;2023-04-01T22:19:24;100872.59;;;8.47;85.51
1207;BME280;593;53.184;8.216;2023-04-01T22:22:08;100870.47;;;8.49;83.87
1207;BME280;593;53.184;8.216;2023-04-01T22:27:51;100887.19;;;8.36;83.48
1207;BME280;593;53.184;8.216;2023-04-01T22:30:27;100897.22;;;8.35;84.05
1207;BME280;593;53.184;8.216;2023-04-01T22:33:03;100897.69;;;8.27;83.79
1207;BME280;593;53.184;8.216;2023-04-01T22:43:38;100922.28;;;8.21;82.74
1207;BME280;593;53.184;8.216;2023-04-01T22:48:40;100932.81;;;8.17;82.10
1207;BME280;593;53.184;8.216;2023-04-01T22:51:20;100934.16;;;8.15;82.76
1207;BME280;593;53.184;8.216;2023-04-01T22:54:04;100938.47;;;8.11;82.39